Terminal Aerodrome Forecast
Issued by NWS Grand Junction, CO

Home | Current Version | Previous Version | Text Only | Print | Product List | Glossary On
Versions: 1 2 3 4 5 6 7 8 9 10 11 12 13 14 15 16 17 18 19 20 21 22 23 24 25 26
231
FTUS45 KGJT 041735 AAG
TAFGJT
TAF AMD
KGJT 041735Z 0418/0518 14008KT P6SM SKC
     FM042000 30004KT P6SM FEW120
     FM050300 10003KT P6SM BKN110
     FM051500 VRB03KT P6SM BKN090=

USA.gov is the U.S. government's official web portal to all federal, state and local government web resources and services.